Norlina, North Carolina
Current Conditions -  °F | °C
As of 1:15 AM on Saturday 01 Nov 2014 (Local Time) from KAVC Reporting Station
Clear Clear  
Wind Chill: 45°   Ceiling: Unl
Heat Index: 45°   Visibility: 10mi
Dew Point: 39°   Wind: 0mph
Humidity: 81%   Direction: NA
Pressure: 29.81"   Gusts: NA
Location:  36.45°N, 78.2°W
Report Text: KAVC 010515Z AUTO 00000KT 10SM CLR 07/04 A2981 RMK AO2
Loading
Personal Weather Stations






























Interactive Weather Map
Tropical Storm Tracking
New forecast layout! Learn more

10-Day Weather Forecast

Advertisements
Track Severe Weather on mobile